Terminal Aerodrome Forecast
Issued by NWS Grand Forks, ND

Home | Current Version | Previous Version | Text Only | Print | Product List | Glossary Off
Versions: 1 2 3 4 5 6 7 8 9 10 11 12 13 14

592
FTUS43 KFGF 302321
TAFFAR
TAF
KFAR 302321Z 0100/0124 33012KT P6SM OVC008
      TEMPO 0100/0104 OVC015
     FM010600 34012KT P6SM OVC008
     FM011700 34011KT P6SM OVC015=

USA.gov is the U.S. government's official web portal to all federal, state and local government web resources and services.